Time;durP1;ratioP1;P1;durP2;ratioP2;P2;SDS_P1;SDS_P2;PMS_P1;PMS_P2;Temp;Humidity;BMP_temperature;BMP_pressure;BME280_temperature;BME280_humidity;BME280_pressure;Samples;Min_cycle;Max_cycle;Signal;HPM_P1;HPM_P2
2023/04/14 00:00:47;;;;;;;13.50;12.88;;;;;;;;;;4984175;28;20057;-96
2023/04/14 00:03:16;;;;;;;14.98;14.35;;;;;;;;;;4996326;28;20054;-96
2023/04/14 00:05:57;;;;;;;14.45;13.75;;;;;;;;;;5008093;28;20042;-96
2023/04/14 00:08:26;;;;;;;11.75;11.18;;;;;;;;;;5006006;28;20058;-96
2023/04/14 00:10:52;;;;;;;14.38;13.77;;;;;;;;;;5008480;28;20061;-96
2023/04/14 00:13:20;;;;;;;13.45;12.93;;;;;;;;;;5005490;28;20061;-96
2023/04/14 00:15:49;;;;;;;12.57;12.05;;;;;;;;;;5004168;28;20499;-96
2023/04/14 00:18:19;;;;;;;15.52;14.82;;;;;;;;;;5003764;28;20050;-96
2023/04/14 00:20:46;;;;;;;12.75;12.25;;;;;;;;;;5008574;28;20064;-95
2023/04/14 00:23:13;;;;;;;12.13;11.57;;;;;;;;;;5000854;28;20766;-96
2023/04/14 00:25:41;;;;;;;12.70;12.18;;;;;;;;;;4999971;28;20061;-96
2023/04/14 00:28:08;;;;;;;13.75;13.05;;;;;;;;;;5001058;28;20058;-95
2023/04/14 00:30:34;;;;;;;13.60;12.93;;;;;;;;;;5007370;28;20046;-96
2023/04/14 00:33:01;;;;;;;10.73;10.30;;;;;;;;;;5009911;28;20481;-96
2023/04/14 00:35:28;;;;;;;16.75;16.02;;;;;;;;;;5002807;28;20049;-96
2023/04/14 00:37:57;;;;;;;11.95;11.25;;;;;;;;;;5006998;28;20065;-96
2023/04/14 00:40:33;;;;;;;;;;;;;;;;;;5008800;28;20042;-96
2023/04/14 00:43:02;;;;;;;10.88;10.38;;;;;;;;;;5007001;28;19956;-96
2023/04/14 00:45:28;;;;;;;11.27;10.77;;;;;;;;;;5003481;28;20058;-96
2023/04/14 00:47:55;;;;;;;11.20;10.68;;;;;;;;;;5007443;28;20050;-96
2023/04/14 00:50:22;;;;;;;12.30;11.77;;;;;;;;;;5001970;28;20073;-96
2023/04/14 00:52:49;;;;;;;14.20;13.68;;;;;;;;;;5002324;28;20053;-96
2023/04/14 00:55:17;;;;;;;11.90;11.25;;;;;;;;;;5011826;28;20046;-97
2023/04/14 00:58:10;;;;;;;10.20;9.35;;;;;;;;;;5007670;28;20061;-96
2023/04/14 01:03:09;;;;;;;18.45;17.73;;;;;;;;;;5024078;28;20050;-96
2023/04/14 01:05:36;;;;;;;14.45;13.90;;;;;;;;;;5027534;28;20058;-96
2023/04/14 01:08:03;;;;;;;9.23;8.82;;;;;;;;;;5025310;28;20439;-96
2023/04/14 01:10:31;;;;;;;16.38;15.75;;;;;;;;;;5020900;28;20057;-96
2023/04/14 01:13:05;;;;;;;13.40;12.90;;;;;;;;;;5022138;28;20054;-96
2023/04/14 01:15:35;;;;;;;10.70;10.27;;;;;;;;;;5029280;28;20153;-96
2023/04/14 01:18:06;;;;;;;13.88;13.38;;;;;;;;;;5022992;28;20050;-96
2023/04/14 01:20:37;;;;;;;11.38;10.85;;;;;;;;;;5029273;28;20077;-96
2023/04/14 01:23:07;;;;;;;9.68;9.27;;;;;;;;;;5018246;28;20451;-96
2023/04/14 01:25:51;;;;;;;8.32;8.02;;;;;;;;;;5017280;28;20060;-96
2023/04/14 01:28:32;;;;;;;11.98;11.48;;;;;;;;;;5012462;28;20049;-96
2023/04/14 01:31:05;;;;;;;8.07;7.72;;;;;;;;;;5017136;28;20415;-96
2023/04/14 01:33:35;;;;;;;9.63;9.15;;;;;;;;;;5017006;28;20050;-96
2023/04/14 01:36:05;;;;;;;11.40;10.90;;;;;;;;;;5020620;28;20061;-96
2023/04/14 01:38:33;;;;;;;7.75;7.20;;;;;;;;;;5018451;28;20049;-96
2023/04/14 01:41:02;;;;;;;9.43;9.02;;;;;;;;;;5020220;28;20056;-96
2023/04/14 01:43:30;;;;;;;11.73;11.25;;;;;;;;;;5019249;28;20096;-96
2023/04/14 01:45:58;;;;;;;9.73;9.30;;;;;;;;;;5019507;28;20053;-95
2023/04/14 01:48:25;;;;;;;9.07;8.68;;;;;;;;;;5019868;28;20415;-95
2023/04/14 01:50:55;;;;;;;12.10;11.60;;;;;;;;;;5019821;28;20049;-95
2023/04/14 01:53:22;;;;;;;14.88;14.27;;;;;;;;;;5019546;28;20103;-95
2023/04/14 01:55:49;;;;;;;12.52;11.70;;;;;;;;;;5020191;28;20061;-96
2023/04/14 01:58:17;;;;;;;10.55;10.05;;;;;;;;;;5019630;28;20530;-96
2023/04/14 02:00:44;;;;;;;12.95;12.43;;;;;;;;;;5019402;28;20057;-96
2023/04/14 02:03:11;;;;;;;13.75;13.23;;;;;;;;;;5018906;28;20053;-96
2023/04/14 02:05:39;;;;;;;11.50;10.88;;;;;;;;;;5020433;28;20061;-96
2023/04/14 02:08:09;;;;;;;9.48;9.07;;;;;;;;;;5018936;28;20053;-96
2023/04/14 02:10:36;;;;;;;;;;;;;;;;;;5023210;28;20080;-96
2023/04/14 02:13:03;;;;;;;11.73;11.02;;;;;;;;;;5021792;28;19932;-96
2023/04/14 02:15:31;;;;;;;9.43;9.00;;;;;;;;;;5020199;28;20061;-96
2023/04/14 02:17:59;;;;;;;9.57;9.07;;;;;;;;;;5019270;28;20053;-96
2023/04/14 02:20:27;;;;;;;9.70;8.95;;;;;;;;;;5020074;28;20478;-96
2023/04/14 02:22:54;;;;;;;8.23;7.93;;;;;;;;;;5031137;28;20531;-96
2023/04/14 02:25:25;;;;;;;11.45;10.75;;;;;;;;;;5029545;28;20053;-96
2023/04/14 02:27:52;;;;;;;;;;;;;;;;;;5024750;28;20046;-96
2023/04/14 02:30:20;;;;;;;10.85;10.38;;;;;;;;;;5021251;28;20372;-96
2023/04/14 02:32:49;;;;;;;11.45;11.00;;;;;;;;;;5019483;28;20104;-95
2023/04/14 02:35:19;;;;;;;12.48;11.55;;;;;;;;;;5018316;28;20054;-96
2023/04/14 02:37:48;;;;;;;9.02;8.32;;;;;;;;;;5019162;28;20050;-96
2023/04/14 02:40:17;;;;;;;12.05;11.40;;;;;;;;;;5019475;28;20488;-95
2023/04/14 02:42:47;;;;;;;8.13;7.78;;;;;;;;;;5019521;28;20108;-96
2023/04/14 02:45:17;;;;;;;10.43;10.02;;;;;;;;;;5018689;28;20157;-96
2023/04/14 02:47:46;;;;;;;8.50;8.15;;;;;;;;;;5020886;28;20042;-96
2023/04/14 02:50:14;;;;;;;8.68;8.35;;;;;;;;;;5018557;28;20050;-95
2023/04/14 02:52:42;;;;;;;8.02;7.70;;;;;;;;;;5018477;28;20061;-95
2023/04/14 02:55:09;;;;;;;7.97;7.68;;;;;;;;;;5020076;28;20202;-96
2023/04/14 02:57:37;;;;;;;9.43;9.10;;;;;;;;;;5028346;28;20081;-96
2023/04/14 03:00:06;;;;;;;11.60;11.20;;;;;;;;;;5020328;28;20073;-96
2023/04/14 03:02:36;;;;;;;9.82;9.48;;;;;;;;;;5031958;28;20080;-96
2023/04/14 03:05:03;;;;;;;6.82;6.60;;;;;;;;;;5031053;28;20108;-95
2023/04/14 03:07:30;;;;;;;13.13;12.63;;;;;;;;;;5021423;28;20112;-96
2023/04/14 03:09:58;;;;;;;7.60;7.30;;;;;;;;;;5021485;28;20049;-96
2023/04/14 03:12:25;;;;;;;10.73;10.32;;;;;;;;;;5021503;28;20056;-96
2023/04/14 03:14:52;;;;;;;11.63;11.20;;;;;;;;;;5024447;28;20066;-95
2023/04/14 03:17:20;;;;;;;10.70;10.30;;;;;;;;;;5025292;28;20042;-96
2023/04/14 03:19:48;;;;;;;8.90;8.57;;;;;;;;;;5029629;28;20077;-96
2023/04/14 03:22:21;;;;;;;8.35;8.02;;;;;;;;;;5031349;28;20050;-96
2023/04/14 03:24:57;;;;;;;15.57;15.02;;;;;;;;;;5032749;28;20056;-96
2023/04/14 03:27:31;;;;;;;10.52;10.13;;;;;;;;;;5029388;28;20117;-96
2023/04/14 03:30:00;;;;;;;9.68;9.32;;;;;;;;;;5026652;28;20084;-96
2023/04/14 03:32:30;;;;;;;13.40;12.90;;;;;;;;;;5024268;28;20054;-96
2023/04/14 03:35:01;;;;;;;12.52;12.05;;;;;;;;;;5022421;28;20511;-96
2023/04/14 03:37:27;;;;;;;;;;;;;;;;;;5023387;28;20054;-96
2023/04/14 03:39:58;;;;;;;10.23;9.85;;;;;;;;;;5019952;28;19952;-96
2023/04/14 03:42:26;;;;;;;10.23;9.82;;;;;;;;;;5017394;28;20120;-95
2023/04/14 03:44:55;;;;;;;9.35;9.02;;;;;;;;;;5017925;28;20056;-96
2023/04/14 03:47:42;;;;;;;13.05;12.45;;;;;;;;;;5028633;28;20057;-96
2023/04/14 03:50:21;;;;;;;13.45;12.95;;;;;;;;;;5025255;28;20053;-96
2023/04/14 03:52:53;;;;;;;13.85;13.35;;;;;;;;;;5028611;28;20109;-96
2023/04/14 04:22:40;;;;;;;8.68;8.35;;;;;;;;;;5034297;28;20538;-95
2023/04/14 04:25:08;;;;;;;7.13;6.85;;;;;;;;;;5038243;28;20091;-96
2023/04/14 04:27:34;;;;;;;11.48;11.05;;;;;;;;;;5038999;28;20049;-96
2023/04/14 04:30:01;;;;;;;13.10;12.60;;;;;;;;;;5039150;28;20049;-95
2023/04/14 04:32:28;;;;;;;14.25;13.75;;;;;;;;;;5039943;28;20049;-95
2023/04/14 04:34:55;;;;;;;12.90;12.40;;;;;;;;;;5023960;28;20033;-96
2023/04/14 04:37:27;;;;;;;12.77;12.32;;;;;;;;;;5040284;28;20049;-96
2023/04/14 04:39:57;;;;;;;9.93;9.52;;;;;;;;;;5041183;28;20068;-96
2023/04/14 04:42:26;;;;;;;8.02;7.72;;;;;;;;;;5040445;28;20042;-95
2023/04/14 04:44:52;;;;;;;12.10;11.68;;;;;;;;;;5045225;28;20076;-96
2023/04/14 04:47:19;;;;;;;13.38;12.85;;;;;;;;;;5041023;28;20053;-96
2023/04/14 04:49:46;;;;;;;12.27;11.85;;;;;;;;;;5028168;28;20049;-95
2023/04/14 04:52:13;;;;;;;13.55;13.05;;;;;;;;;;5028347;28;20042;-96
2023/04/14 04:54:40;;;;;;;13.35;12.85;;;;;;;;;;5046995;28;20057;-96
2023/04/14 04:57:08;;;;;;;12.18;11.75;;;;;;;;;;5045546;28;20049;-96
2023/04/14 04:59:35;;;;;;;12.43;11.98;;;;;;;;;;5048337;28;20052;-95
2023/04/14 05:02:02;;;;;;;15.18;14.65;;;;;;;;;;5054576;28;20049;-96
2023/04/14 05:04:29;;;;;;;12.95;12.45;;;;;;;;;;5055316;28;20053;-95
2023/04/14 05:06:56;;;;;;;12.82;12.35;;;;;;;;;;5052853;28;20049;-94
2023/04/14 05:09:22;;;;;;;15.00;14.48;;;;;;;;;;5053735;28;20049;-93
2023/04/14 05:11:50;;;;;;;17.40;16.77;;;;;;;;;;5053134;28;20087;-95
2023/04/14 05:14:36;;;;;;;14.65;14.13;;;;;;;;;;5049096;28;20065;-96
2023/04/14 05:17:04;;;;;;;13.52;13.00;;;;;;;;;;5053132;28;20053;-96
2023/04/14 05:19:32;;;;;;;19.38;18.67;;;;;;;;;;5036824;28;20037;-95
2023/04/14 05:21:58;;;;;;;9.90;9.52;;;;;;;;;;5049825;28;20102;-96
2023/04/14 05:24:26;;;;;;;12.63;12.18;;;;;;;;;;5048738;28;20033;-96
2023/04/14 05:26:53;;;;;;;15.23;14.68;;;;;;;;;;5045565;28;20076;-95
2023/04/14 05:29:21;;;;;;;15.32;14.77;;;;;;;;;;5034707;28;20053;-92
2023/04/14 05:31:47;;;;;;;17.30;16.63;;;;;;;;;;5034733;28;20041;-96
2023/04/14 05:34:15;;;;;;;14.48;13.95;;;;;;;;;;5035491;28;20052;-95
2023/04/14 05:36:42;;;;;;;11.20;10.77;;;;;;;;;;5035164;28;20095;-96
2023/04/14 05:39:08;;;;;;;11.35;10.93;;;;;;;;;;5037783;28;20046;-96
2023/04/14 05:41:35;;;;;;;14.45;13.93;;;;;;;;;;5036896;28;20502;-96
2023/04/14 05:44:03;;;;;;;12.05;11.63;;;;;;;;;;5037242;28;20071;-96
2023/04/14 05:46:31;;;;;;;15.82;15.25;;;;;;;;;;5040476;28;20053;-93
2023/04/14 05:48:59;;;;;;;11.63;11.20;;;;;;;;;;5038901;28;20418;-95
2023/04/14 05:51:26;;;;;;;12.15;11.70;;;;;;;;;;5036735;28;20057;-95
2023/04/14 05:53:53;;;;;;;20.40;19.67;;;;;;;;;;5037370;28;20058;-95
2023/04/14 05:56:19;;;;;;;12.57;12.15;;;;;;;;;;5035719;28;20392;-94
2023/04/14 05:58:46;;;;;;;20.63;19.90;;;;;;;;;;5034986;28;20045;-95
2023/04/14 06:01:13;;;;;;;18.60;17.90;;;;;;;;;;5038710;28;20050;-96
2023/04/14 06:03:41;;;;;;;16.15;15.55;;;;;;;;;;5042049;28;20049;-95
2023/04/14 06:06:07;;;;;;;16.98;16.35;;;;;;;;;;5036699;28;20060;-94
2023/04/14 06:08:34;;;;;;;11.90;11.48;;;;;;;;;;5037770;28;20049;-95
2023/04/14 06:11:01;;;;;;;13.48;12.98;;;;;;;;;;5036672;28;20054;-93
2023/04/14 06:13:27;;;;;;;16.20;15.57;;;;;;;;;;5037102;28;20049;-94
2023/04/14 06:15:55;;;;;;;13.18;12.68;;;;;;;;;;5038053;28;20132;-92
2023/04/14 06:18:22;;;;;;;14.15;13.63;;;;;;;;;;5037718;28;20057;-94
2023/04/14 06:20:50;;;;;;;15.57;15.00;;;;;;;;;;5035505;28;20483;-92
2023/04/14 06:23:16;;;;;;;22.30;21.50;;;;;;;;;;5037031;28;20053;-93
2023/04/14 06:25:43;;;;;;;13.20;12.70;;;;;;;;;;5041501;28;20430;-94
2023/04/14 06:28:09;;;;;;;16.95;16.33;;;;;;;;;;5042614;28;20061;-94
2023/04/14 06:30:36;;;;;;;18.17;17.48;;;;;;;;;;5049864;28;20562;-95
2023/04/14 06:33:04;;;;;;;13.50;12.98;;;;;;;;;;5053872;28;20045;-96
2023/04/14 06:35:31;;;;;;;16.52;15.93;;;;;;;;;;5043554;28;20053;-95
2023/04/14 06:37:59;;;;;;;16.38;15.75;;;;;;;;;;5040342;28;20432;-93
2023/04/14 06:40:25;;;;;;;19.15;18.42;;;;;;;;;;5043715;28;20072;-95
2023/04/14 06:42:52;;;;;;;15.82;15.27;;;;;;;;;;5043330;28;20100;-94
2023/04/14 06:45:19;;;;;;;15.50;14.95;;;;;;;;;;5042434;28;20045;-93
2023/04/14 06:47:46;;;;;;;13.70;13.18;;;;;;;;;;5041993;28;20723;-96
2023/04/14 06:50:12;;;;;;;18.25;17.60;;;;;;;;;;5044620;28;20100;-94
2023/04/14 06:52:39;;;;;;;18.48;17.83;;;;;;;;;;5043723;28;20046;-95
2023/04/14 06:55:07;;;;;;;17.95;17.27;;;;;;;;;;5043239;28;20049;-96
2023/04/14 06:57:33;;;;;;;18.83;18.13;;;;;;;;;;5044066;28;20107;-95
2023/04/14 07:00:00;;;;;;;15.25;14.73;;;;;;;;;;5042693;28;20111;-94
2023/04/14 07:02:27;;;;;;;15.00;14.48;;;;;;;;;;5041049;28;20119;-95
2023/04/14 07:04:54;;;;;;;18.80;18.15;;;;;;;;;;5042489;28;20050;-94
2023/04/14 07:07:20;;;;;;;17.15;16.55;;;;;;;;;;5041266;28;20049;-94
2023/04/14 07:09:47;;;;;;;20.85;20.08;;;;;;;;;;5040016;28;20576;-94
2023/04/14 07:12:15;;;;;;;17.60;16.80;;;;;;;;;;5040506;28;20053;-95
2023/04/14 07:14:42;;;;;;;15.45;14.88;;;;;;;;;;5041073;28;20143;-95
2023/04/14 07:17:08;;;;;;;11.88;11.45;;;;;;;;;;5040355;28;20080;-94
2023/04/14 07:19:35;;;;;;;16.27;15.68;;;;;;;;;;5039777;28;20104;-93
2023/04/14 07:22:01;;;;;;;14.88;14.35;;;;;;;;;;5039634;28;20061;-94
2023/04/14 07:24:28;;;;;;;12.75;12.27;;;;;;;;;;5040118;28;20045;-95
2023/04/14 07:26:55;;;;;;;12.73;12.27;;;;;;;;;;5038353;28;20049;-95
2023/04/14 07:29:23;;;;;;;17.48;16.85;;;;;;;;;;5037694;28;20068;-92
2023/04/14 07:31:49;;;;;;;10.60;10.18;;;;;;;;;;5037492;28;20053;-92
2023/04/14 07:34:16;;;;;;;11.32;10.93;;;;;;;;;;5037273;28;20457;-93
2023/04/14 07:36:43;;;;;;;12.57;12.13;;;;;;;;;;5036934;28;20057;-92
2023/04/14 07:39:10;;;;;;;16.20;15.60;;;;;;;;;;5037233;28;20045;-94
2023/04/14 07:41:36;;;;;;;14.05;13.55;;;;;;;;;;5037139;28;20471;-94
2023/04/14 07:44:03;;;;;;;18.42;17.77;;;;;;;;;;5036826;28;20045;-95
2023/04/14 07:46:31;;;;;;;12.80;12.27;;;;;;;;;;5041031;28;20053;-93
2023/04/14 07:48:57;;;;;;;15.65;15.05;;;;;;;;;;5041172;28;20557;-95
2023/04/14 07:51:24;;;;;;;15.68;15.10;;;;;;;;;;5040613;28;20057;-95
2023/04/14 07:53:54;;;;;;;15.65;15.07;;;;;;;;;;5041643;28;20057;-96
2023/04/14 07:56:24;;;;;;;17.63;17.00;;;;;;;;;;5021516;28;20058;-95
2023/04/14 07:58:51;;;;;;;13.25;12.77;;;;;;;;;;5023389;28;20061;-96
2023/04/14 08:01:18;;;;;;;13.88;12.85;;;;;;;;;;5042902;28;20049;-96
2023/04/14 08:03:46;;;;;;;10.90;10.50;;;;;;;;;;5042344;28;20054;-94
2023/04/14 08:06:12;;;;;;;12.02;11.57;;;;;;;;;;5045245;28;20130;-95
2023/04/14 08:08:39;;;;;;;14.23;13.70;;;;;;;;;;5041054;28;20067;-95
2023/04/14 08:11:06;;;;;;;14.25;13.75;;;;;;;;;;5044470;28;20049;-94
2023/04/14 08:13:33;;;;;;;15.15;14.60;;;;;;;;;;5048169;28;20045;-96
2023/04/14 08:15:59;;;;;;;15.68;15.15;;;;;;;;;;5040101;28;20045;-94
2023/04/14 08:18:26;;;;;;;11.95;11.52;;;;;;;;;;5038795;28;20049;-93
2023/04/14 08:20:54;;;;;;;13.20;12.70;;;;;;;;;;5038810;28;20457;-94
2023/04/14 08:23:21;;;;;;;13.88;13.35;;;;;;;;;;5037492;28;20053;-93
2023/04/14 08:25:48;;;;;;;16.90;16.27;;;;;;;;;;5036665;28;20189;-93
2023/04/14 08:28:14;;;;;;;17.40;16.77;;;;;;;;;;5036780;28;20053;-94
2023/04/14 08:30:41;;;;;;;14.57;14.05;;;;;;;;;;5037542;28;20049;-95
2023/04/14 08:33:07;;;;;;;19.05;18.38;;;;;;;;;;5035783;28;20072;-93
2023/04/14 08:35:35;;;;;;;14.30;13.80;;;;;;;;;;5037088;28;20104;-93
2023/04/14 08:38:03;;;;;;;14.85;14.32;;;;;;;;;;5036190;28;20095;-94
2023/04/14 08:40:33;;;;;;;15.50;14.93;;;;;;;;;;5036197;28;20491;-94
2023/04/14 08:42:59;;;;;;;10.10;9.70;;;;;;;;;;5035821;28;20053;-93
2023/04/14 08:45:26;;;;;;;12.48;12.00;;;;;;;;;;5036027;28;20729;-92
2023/04/14 08:47:55;;;;;;;12.73;12.27;;;;;;;;;;5036724;28;20057;-94
2023/04/14 08:50:25;;;;;;;15.25;14.70;;;;;;;;;;5030818;28;20077;-95
2023/04/14 08:52:54;;;;;;;11.65;11.23;;;;;;;;;;5035976;28;20058;-95
2023/04/14 08:55:22;;;;;;;17.42;16.80;;;;;;;;;;5036053;28;20053;-95
2023/04/14 08:57:50;;;;;;;12.60;12.15;;;;;;;;;;5035854;28;20057;-93
2023/04/14 09:00:17;;;;;;;11.48;11.05;;;;;;;;;;5036668;28;20563;-93
2023/04/14 09:02:44;;;;;;;16.23;15.63;;;;;;;;;;5035749;28;20057;-91
2023/04/14 09:05:11;;;;;;;11.02;10.63;;;;;;;;;;5035686;28;20459;-93
2023/04/14 09:07:38;;;;;;;12.95;12.45;;;;;;;;;;5036551;28;20396;-93
2023/04/14 09:10:05;;;;;;;13.18;12.68;;;;;;;;;;5035520;28;20056;-96
2023/04/14 09:12:34;;;;;;;18.08;17.45;;;;;;;;;;5036444;28;20045;-94
2023/04/14 09:15:01;;;;;;;14.88;14.27;;;;;;;;;;5035414;28;20050;-93
2023/04/14 09:17:29;;;;;;;18.33;17.70;;;;;;;;;;5036462;28;20056;-94
2023/04/14 09:19:55;;;;;;;14.57;14.05;;;;;;;;;;5037215;28;20422;-94
2023/04/14 09:22:22;;;;;;;16.20;15.57;;;;;;;;;;5036677;28;20057;-94
2023/04/14 09:24:48;;;;;;;20.33;19.58;;;;;;;;;;5034909;28;20491;-94
2023/04/14 09:27:15;;;;;;;18.98;18.25;;;;;;;;;;5035658;28;20064;-95
2023/04/14 09:29:43;;;;;;;20.90;20.15;;;;;;;;;;5034137;28;20051;-95
2023/04/14 09:32:11;;;;;;;19.65;18.92;;;;;;;;;;5035966;28;20053;-95
2023/04/14 09:34:47;;;;;;;17.85;17.23;;;;;;;;;;5036263;28;20045;-94
2023/04/14 09:37:15;;;;;;;16.52;15.93;;;;;;;;;;5036279;28;20631;-95
2023/04/14 09:39:47;;;;;;;17.08;16.45;;;;;;;;;;5036573;28;20052;-94
2023/04/14 09:42:13;;;;;;;23.55;22.73;;;;;;;;;;5037070;28;20052;-93
2023/04/14 09:44:52;;;;;;;17.25;16.55;;;;;;;;;;5035700;28;20071;-93
2023/04/14 09:47:20;;;;;;;15.65;15.07;;;;;;;;;;5034733;28;20107;-94
2023/04/14 09:49:56;;;;;;;17.77;17.15;;;;;;;;;;5035392;28;20096;-94
2023/04/14 09:52:22;;;;;;;24.08;23.20;;;;;;;;;;5036213;28;20136;-95
2023/04/14 09:54:54;;;;;;;22.05;21.25;;;;;;;;;;5035854;28;20045;-95
2023/04/14 09:57:25;;;;;;;17.38;16.75;;;;;;;;;;5035207;28;20049;-95
2023/04/14 09:59:53;;;;;;;18.85;18.15;;;;;;;;;;5037191;28;20107;-95
2023/04/14 10:02:19;;;;;;;20.65;19.92;;;;;;;;;;5039250;28;20049;-95
2023/04/14 10:04:46;;;;;;;16.25;15.65;;;;;;;;;;5041488;28;20041;-96
2023/04/14 10:07:17;;;;;;;21.05;20.13;;;;;;;;;;5022720;28;20054;-96
2023/04/14 10:09:47;;;;;;;17.02;16.42;;;;;;;;;;5022716;28;20057;-95
2023/04/14 10:12:17;;;;;;;19.63;18.92;;;;;;;;;;5023404;28;20100;-94
2023/04/14 10:14:43;;;;;;;27.05;26.10;;;;;;;;;;5026389;28;20081;-94
2023/04/14 10:17:12;;;;;;;20.77;20.05;;;;;;;;;;5042559;28;20060;-94
2023/04/14 10:19:39;;;;;;;20.73;19.98;;;;;;;;;;5044685;28;20053;-95
2023/04/14 10:22:06;;;;;;;18.23;17.42;;;;;;;;;;5045472;28;20057;-94
2023/04/14 10:24:33;;;;;;;20.95;20.20;;;;;;;;;;5046198;28;20128;-95
2023/04/14 10:27:02;;;;;;;16.92;16.30;;;;;;;;;;5047125;28;20057;-95
2023/04/14 10:29:29;;;;;;;11.63;11.20;;;;;;;;;;5045772;28;20045;-96
2023/04/14 10:31:59;;;;;;;11.88;11.40;;;;;;;;;;5044910;28;20054;-95
2023/04/14 10:34:29;;;;;;;12.82;12.35;;;;;;;;;;5044329;28;20049;-96
2023/04/14 10:36:56;;;;;;;11.40;10.98;;;;;;;;;;5047451;28;20053;-95
2023/04/14 10:39:24;;;;;;;13.35;12.85;;;;;;;;;;5046113;28;20463;-95
2023/04/14 10:41:51;;;;;;;13.05;12.57;;;;;;;;;;5043245;28;20140;-93
2023/04/14 10:44:24;;;;;;;11.27;10.85;;;;;;;;;;5043888;28;20069;-95
2023/04/14 10:46:52;;;;;;;8.65;8.32;;;;;;;;;;5044472;28;20049;-95
2023/04/14 10:49:21;;;;;;;7.80;7.50;;;;;;;;;;5043964;28;20053;-95
2023/04/14 10:51:49;;;;;;;9.63;9.27;;;;;;;;;;5043101;28;20055;-95
2023/04/14 10:54:16;;;;;;;7.75;7.45;;;;;;;;;;5042888;28;20049;-96
2023/04/14 10:57:05;;;;;;;12.57;12.13;;;;;;;;;;5044516;28;20128;-96
2023/04/14 10:59:32;;;;;;;10.27;9.88;;;;;;;;;;5043139;28;20573;-95
2023/04/14 11:01:59;;;;;;;14.23;13.70;;;;;;;;;;5041642;28;20494;-96
2023/04/14 11:04:25;;;;;;;10.48;10.07;;;;;;;;;;5039953;28;20045;-94
2023/04/14 11:06:55;;;;;;;12.68;12.23;;;;;;;;;;5040952;28;20049;-96
2023/04/14 11:09:26;;;;;;;9.48;9.13;;;;;;;;;;5041087;28;20084;-95
2023/04/14 11:11:55;;;;;;;9.80;9.40;;;;;;;;;;5038283;28;20045;-95
2023/04/14 11:14:25;;;;;;;10.70;10.30;;;;;;;;;;5037740;28;20410;-95
2023/04/14 11:16:52;;;;;;;;;;;;;;;;;;5045066;28;20506;-95
2023/04/14 11:19:18;;;;;;;10.82;10.43;;;;;;;;;;5048013;28;19924;-95
2023/04/14 11:21:49;;;;;;;7.07;6.80;;;;;;;;;;5040955;28;20073;-95
2023/04/14 11:24:18;;;;;;;9.77;9.43;;;;;;;;;;5040942;28;20550;-95
2023/04/14 11:26:46;;;;;;;8.93;8.60;;;;;;;;;;5038168;28;20119;-95
2023/04/14 11:29:12;;;;;;;10.15;9.75;;;;;;;;;;5040229;28;20053;-95
2023/04/14 11:31:39;;;;;;;8.40;8.07;;;;;;;;;;5039077;28;20057;-94
2023/04/14 11:34:06;;;;;;;11.95;11.52;;;;;;;;;;5038848;28;20049;-95
2023/04/14 11:36:35;;;;;;;15.48;14.88;;;;;;;;;;5037945;28;20049;-94
2023/04/14 11:39:01;;;;;;;12.38;11.93;;;;;;;;;;5038162;28;20522;-94
2023/04/14 11:41:30;;;;;;;8.35;8.02;;;;;;;;;;5038104;28;20049;-95
2023/04/14 11:43:56;;;;;;;8.52;8.23;;;;;;;;;;5040230;28;20407;-94
2023/04/14 11:46:23;;;;;;;8.50;8.20;;;;;;;;;;5040447;28;20392;-94
2023/04/14 11:51:39;;;;;;;12.20;11.75;;;;;;;;;;5040020;28;20052;-95
2023/04/14 11:54:05;;;;;;;10.80;10.27;;;;;;;;;;5039393;28;20053;-95
2023/04/14 11:56:33;;;;;;;8.63;8.32;;;;;;;;;;5037552;28;20054;-96
2023/04/14 11:59:00;;;;;;;5.80;5.57;;;;;;;;;;5037342;28;20049;-95
2023/04/14 12:01:28;;;;;;;10.65;10.25;;;;;;;;;;5037187;28;20140;-96
2023/04/14 12:03:55;;;;;;;12.40;11.95;;;;;;;;;;5036772;28;20045;-95
2023/04/14 12:06:22;;;;;;;4.28;4.07;;;;;;;;;;5036787;28;20415;-95
2023/04/14 12:08:51;;;;;;;6.43;6.20;;;;;;;;;;5044086;28;20049;-94
2023/04/14 12:11:17;;;;;;;6.28;6.05;;;;;;;;;;5058145;28;20053;-93
2023/04/14 12:13:46;;;;;;;9.23;8.90;;;;;;;;;;5057911;28;20119;-93
2023/04/14 12:16:13;;;;;;;8.40;8.10;;;;;;;;;;5052900;28;20098;-95
2023/04/14 12:18:40;;;;;;;8.25;7.95;;;;;;;;;;5037277;28;20041;-96
2023/04/14 12:21:07;;;;;;;8.57;8.27;;;;;;;;;;5037082;28;20049;-95
2023/04/14 12:23:34;;;;;;;5.10;4.90;;;;;;;;;;5036141;28;20430;-94
2023/04/14 12:26:01;;;;;;;5.47;5.28;;;;;;;;;;5035402;28;20399;-94
2023/04/14 12:28:28;;;;;;;8.40;8.10;;;;;;;;;;5036003;28;20483;-94
2023/04/14 12:30:58;;;;;;;5.25;5.05;;;;;;;;;;5037283;28;20057;-92
2023/04/14 12:33:26;;;;;;;9.50;9.18;;;;;;;;;;5036470;28;20087;-92
2023/04/14 12:35:52;;;;;;;5.57;5.35;;;;;;;;;;5035987;28;20140;-93
2023/04/14 12:38:19;;;;;;;7.22;6.95;;;;;;;;;;5035858;28;20053;-93
2023/04/14 12:40:47;;;;;;;8.10;7.80;;;;;;;;;;5035896;28;20119;-94
2023/04/14 12:43:14;;;;;;;10.63;10.23;;;;;;;;;;5035290;28;20128;-94
2023/04/14 12:45:42;;;;;;;6.90;6.60;;;;;;;;;;5036552;28;20050;-95
2023/04/14 12:48:10;;;;;;;9.88;9.48;;;;;;;;;;5036621;28;20045;-94
2023/04/14 12:50:37;;;;;;;6.13;5.93;;;;;;;;;;5036535;28;20466;-94
2023/04/14 12:53:22;;;;;;;5.03;4.82;;;;;;;;;;5036065;28;20052;-93
2023/04/14 12:56:03;;;;;;;5.57;5.38;;;;;;;;;;5036204;28;20392;-93
2023/04/14 12:58:29;;;;;;;3.95;3.83;;;;;;;;;;5028354;28;20057;-93
2023/04/14 13:00:56;;;;;;;4.95;4.75;;;;;;;;;;5036533;28;20050;-95
2023/04/14 13:03:24;;;;;;;6.18;5.95;;;;;;;;;;5036815;28;20102;-94
2023/04/14 13:05:51;;;;;;;4.18;4.05;;;;;;;;;;5040199;28;20049;-92
2023/04/14 13:08:17;;;;;;;4.75;4.55;;;;;;;;;;5045178;28;20057;-93
2023/04/14 13:10:44;;;;;;;8.55;8.05;;;;;;;;;;5048382;28;20057;-92
2023/04/14 13:13:12;;;;;;;7.10;6.80;;;;;;;;;;5045113;28;20057;-94
2023/04/14 13:15:39;;;;;;;7.72;7.47;;;;;;;;;;5041238;28;20046;-95
2023/04/14 13:18:06;;;;;;;9.60;8.75;;;;;;;;;;5042244;28;20068;-95
2023/04/14 13:20:34;;;;;;;4.72;4.53;;;;;;;;;;5027600;28;20081;-95
2023/04/14 13:23:00;;;;;;;4.80;4.60;;;;;;;;;;5039160;28;20491;-94
2023/04/14 13:25:27;;;;;;;6.15;5.93;;;;;;;;;;5036597;28;20171;-94
2023/04/14 13:27:53;;;;;;;5.72;5.50;;;;;;;;;;5023874;28;20054;-94
2023/04/14 13:30:20;;;;;;;7.68;7.38;;;;;;;;;;5018374;28;20100;-94
2023/04/14 13:32:47;;;;;;;7.47;7.18;;;;;;;;;;5033795;28;20046;-93
2023/04/14 13:35:14;;;;;;;6.40;6.18;;;;;;;;;;5040947;28;20099;-94
2023/04/14 13:37:42;;;;;;;6.45;6.22;;;;;;;;;;5036244;28;20141;-95
2023/04/14 13:40:09;;;;;;;6.68;6.43;;;;;;;;;;5036724;28;20054;-94
2023/04/14 13:42:36;;;;;;;10.48;10.07;;;;;;;;;;5036271;28;20056;-94
2023/04/14 13:45:03;;;;;;;6.60;6.38;;;;;;;;;;5030818;28;20050;-94
2023/04/14 13:47:30;;;;;;;6.78;6.55;;;;;;;;;;5023588;28;20053;-93
2023/04/14 13:49:57;;;;;;;7.80;7.50;;;;;;;;;;5034724;28;20592;-94
2023/04/14 13:52:23;;;;;;;7.75;7.45;;;;;;;;;;5034693;28;20049;-94
2023/04/14 13:54:51;;;;;;;6.72;6.50;;;;;;;;;;5035244;28;20083;-93
2023/04/14 13:57:20;;;;;;;8.05;7.70;;;;;;;;;;5034992;28;20095;-94
2023/04/14 13:59:47;;;;;;;6.88;6.60;;;;;;;;;;5035141;28;20053;-94
2023/04/14 14:02:13;;;;;;;4.85;4.65;;;;;;;;;;5035793;28;20057;-94
2023/04/14 14:04:40;;;;;;;8.13;7.82;;;;;;;;;;5035362;28;20112;-95
2023/04/14 14:07:06;;;;;;;6.10;5.90;;;;;;;;;;5037684;28;20411;-95
2023/04/14 14:09:33;;;;;;;7.28;6.97;;;;;;;;;;5045119;28;20502;-94
2023/04/14 14:12:01;;;;;;;6.60;6.38;;;;;;;;;;5046093;28;20461;-93
2023/04/14 14:14:28;;;;;;;6.72;6.47;;;;;;;;;;5036216;28;20069;-93
2023/04/14 14:16:55;;;;;;;6.88;6.63;;;;;;;;;;5036017;28;20041;-93
2023/04/14 14:19:21;;;;;;;5.97;5.78;;;;;;;;;;5038102;28;20053;-92
2023/04/14 14:21:48;;;;;;;6.07;5.85;;;;;;;;;;5035206;28;20060;-94
2023/04/14 14:24:14;;;;;;;6.50;6.28;;;;;;;;;;5036038;28;20060;-93
2023/04/14 14:26:41;;;;;;;6.88;6.63;;;;;;;;;;5035364;28;20050;-94
2023/04/14 15:02:24;;;;;;;10.60;10.20;;;;;;;;;;5126070;27;20439;-93
2023/04/14 15:04:51;;;;;;;11.15;10.75;;;;;;;;;;5092261;28;20052;-93
2023/04/14 15:07:17;;;;;;;5.88;5.65;;;;;;;;;;5099339;28;20058;-93
2023/04/14 15:09:45;;;;;;;12.48;12.02;;;;;;;;;;5094665;28;20051;-92
2023/04/14 15:12:11;;;;;;;12.15;11.73;;;;;;;;;;5091920;28;20051;-93
2023/04/14 15:14:38;;;;;;;17.48;16.85;;;;;;;;;;5092555;28;20048;-93
2023/04/14 15:17:05;;;;;;;16.60;16.00;;;;;;;;;;5092259;28;20102;-93
2023/04/14 15:19:33;;;;;;;10.57;10.15;;;;;;;;;;5092535;28;20449;-92
2023/04/14 15:21:59;;;;;;;15.35;14.77;;;;;;;;;;5092282;28;20102;-93
2023/04/14 15:24:26;;;;;;;12.40;11.98;;;;;;;;;;5091770;28;20143;-93
2023/04/14 15:26:52;;;;;;;15.23;14.68;;;;;;;;;;5091499;28;20048;-93
2023/04/14 15:29:19;;;;;;;13.40;12.88;;;;;;;;;;5091340;28;20549;-93
2023/04/14 15:31:46;;;;;;;15.35;14.82;;;;;;;;;;5091388;28;20044;-93
2023/04/14 15:34:12;;;;;;;26.98;26.00;;;;;;;;;;5091031;28;20416;-93
2023/04/14 15:36:40;;;;;;;14.40;13.88;;;;;;;;;;5091059;28;20044;-93